Maria Noelle — WDD9564 — position and weather

sailwx.info

Track history (hours):
 
Tides and Currents Weather Stations Pressure Air Temp Water Temp Dewpoint Dewpoint Depression Visibility Wind Speed Wind Dir Waves Ship Positions

Maria Noelle

Owner: MUROS INC, POINT PLEASANT, NJ. More information available from US FCC via Universal Licensing System and Coast Guard Vessel Documentation Center.

Last reported at 2015-Aug-04 02:31 UTC. Time now 2015-Aug-28 12:48 UTC.
Position N 40°06' W 074°02'.
Warning: this ship's position is 24 days out of date.

Length 26 m.

Type: Fishing. MMSI: 367313170.

Date/timePositionNaut miles runAvg speedWind from/ knotsBaromVisibWave heightAir tempDewpointWater temp
2015-Aug-04 02:31N 40°06' W 074°02'3 2.8
2015-Aug-04 01:28N 40°06' W 073°58'7 7.9
2015-Aug-04 00:33N 40°08' W 073°49'7 7.5
2015-Aug-03 23:34N 40°10' W 073°40'8 7.7
2015-Aug-03 22:34N 40°12' W 073°30'1 0.1
2015-Aug-03 09:10N 40°11' W 073°30'3 5.4
2015-Aug-03 08:34N 40°10' W 073°35'1010.3
2015-Aug-03 07:33N 40°08' W 073°48'8 8.1
2015-Aug-03 06:33N 40°06' W 073°58'3 3.1
2015-Aug-03 05:32N 40°06' W 074°02'0 0.0
2015-Aug-03 04:32N 40°06' W 074°02'18 0.8
2015-Aug-02 06:33N 40°10' W 073°39'9 8.4
2015-Aug-02 05:32N 40°12' W 073°28'7 1.3
2015-Aug-02 00:04N 40°14' W 073°19'2 3.5
2015-Aug-01 23:33N 40°14' W 073°17'2 1.8
2015-Aug-01 22:33N 40°14' W 073°19'1 0.7
2015-Aug-01 21:33N 40°14' W 073°18'1 1.1
2015-Aug-01 20:33N 40°15' W 073°17'1 1.2
2015-Aug-01 19:33N 40°14' W 073°19'34 4.3
2015-Aug-01 11:30N 40°06' W 074°02'0 0.0
2015-Aug-01 10:27N 40°06' W 074°02'0 0.0
2015-Aug-01 09:30N 40°06' W 074°02'4 4.4
2015-Aug-01 08:33N 40°06' W 073°57'4 0.2
2015-Jul-31 12:31N 40°06' W 074°02'0 0.0
2015-Jul-31 11:30N 40°06' W 074°02'0 0.0
2015-Jul-31 10:32N 40°06' W 074°02'0 0.0
2015-Jul-31 09:33N 40°06' W 074°02'6 5.8
2015-Jul-31 08:33N 40°07' W 073°55'7 7.3
2015-Jul-31 07:33N 40°08' W 073°45'9 8.5
2015-Jul-31 06:33N 40°10' W 073°34'7 0.5
2015-Jul-30 16:19N 40°13' W 073°26'  
2015-Jul-27 07:23N 40°08' W 073°59'2 2.2
2015-Jul-27 06:33N 40°10' W 073°58'3 2.6
2015-Jul-27 05:33N 40°12' W 073°55'2 2.1
2015-Jul-27 04:31N 40°10' W 073°57'2 2.3
2015-Jul-27 03:32N 40°08' W 073°59'3 2.8
2015-Jul-27 02:33N 40°11' W 073°57'1 1.0
2015-Jul-27 01:33N 40°12' W 073°57'3 3.0
2015-Jul-27 00:26N 40°09' W 073°59'4 0.2
2015-Jul-26 05:33N 40°12' W 073°55'3 2.6
2015-Jul-26 04:32N 40°10' W 073°58'3 1.3
2015-Jul-26 02:04N 40°12' W 073°54'2 2.8
2015-Jul-26 01:31N 40°11' W 073°56'3 2.9
2015-Jul-26 00:33N 40°09' W 073°58'4 0.3
2015-Jul-25 09:32N 40°06' W 074°02'0 0.1
2015-Jul-25 08:33N 40°06' W 074°02'5 4.9
2015-Jul-25 07:31N 40°09' W 073°57'3 2.5
2015-Jul-25 06:22N 40°12' W 073°55'0 0.1
2015-Jul-25 04:16N 40°11' W 073°55'1 0.7
2015-Jul-25 03:33N 40°11' W 073°56'  
Track history (hours):
 
Tides and Currents Weather Stations Pressure Air Temp Water Temp Dewpoint Dewpoint Depression Visibility Wind Speed Wind Dir Waves Ship Positions

Maria Noelle

Owner: MUROS INC, POINT PLEASANT, NJ. More information available from US FCC via Universal Licensing System and Coast Guard Vessel Documentation Center.

Last reported at 2015-Aug-04 02:31 UTC. Time now 2015-Aug-28 12:48 UTC.
Position N 40°06' W 074°02'.
Warning: this ship's position is 24 days out of date.

Length 26 m.

Type: Fishing. MMSI: 367313170.

Date/timePositionNaut miles runAvg speedWind from/ knotsBaromVisibWave heightAir tempDewpointWater temp
2015-Aug-04 02:31N 40°06' W 074°02'3 2.8
2015-Aug-04 01:28N 40°06' W 073°58'7 7.9
2015-Aug-04 00:33N 40°08' W 073°49'7 7.5
2015-Aug-03 23:34N 40°10' W 073°40'8 7.7
2015-Aug-03 22:34N 40°12' W 073°30'1 0.1
2015-Aug-03 09:10N 40°11' W 073°30'3 5.4
2015-Aug-03 08:34N 40°10' W 073°35'1010.3
2015-Aug-03 07:33N 40°08' W 073°48'8 8.1
2015-Aug-03 06:33N 40°06' W 073°58'3 3.1
2015-Aug-03 05:32N 40°06' W 074°02'0 0.0
2015-Aug-03 04:32N 40°06' W 074°02'18 0.8
2015-Aug-02 06:33N 40°10' W 073°39'9 8.4
2015-Aug-02 05:32N 40°12' W 073°28'7 1.3
2015-Aug-02 00:04N 40°14' W 073°19'2 3.5
2015-Aug-01 23:33N 40°14' W 073°17'2 1.8
2015-Aug-01 22:33N 40°14' W 073°19'1 0.7
2015-Aug-01 21:33N 40°14' W 073°18'1 1.1
2015-Aug-01 20:33N 40°15' W 073°17'1 1.2
2015-Aug-01 19:33N 40°14' W 073°19'34 4.3
2015-Aug-01 11:30N 40°06' W 074°02'0 0.0
2015-Aug-01 10:27N 40°06' W 074°02'0 0.0
2015-Aug-01 09:30N 40°06' W 074°02'4 4.4
2015-Aug-01 08:33N 40°06' W 073°57'4 0.2
2015-Jul-31 12:31N 40°06' W 074°02'0 0.0
2015-Jul-31 11:30N 40°06' W 074°02'0 0.0
2015-Jul-31 10:32N 40°06' W 074°02'0 0.0
2015-Jul-31 09:33N 40°06' W 074°02'6 5.8
2015-Jul-31 08:33N 40°07' W 073°55'7 7.3
2015-Jul-31 07:33N 40°08' W 073°45'9 8.5
2015-Jul-31 06:33N 40°10' W 073°34'7 0.5
2015-Jul-30 16:19N 40°13' W 073°26'  
2015-Jul-27 07:23N 40°08' W 073°59'2 2.2
2015-Jul-27 06:33N 40°10' W 073°58'3 2.6
2015-Jul-27 05:33N 40°12' W 073°55'2 2.1
2015-Jul-27 04:31N 40°10' W 073°57'2 2.3
2015-Jul-27 03:32N 40°08' W 073°59'3 2.8
2015-Jul-27 02:33N 40°11' W 073°57'1 1.0
2015-Jul-27 01:33N 40°12' W 073°57'3 3.0
2015-Jul-27 00:26N 40°09' W 073°59'4 0.2
2015-Jul-26 05:33N 40°12' W 073°55'3 2.6
2015-Jul-26 04:32N 40°10' W 073°58'3 1.3
2015-Jul-26 02:04N 40°12' W 073°54'2 2.8
2015-Jul-26 01:31N 40°11' W 073°56'3 2.9
2015-Jul-26 00:33N 40°09' W 073°58'4 0.3
2015-Jul-25 09:32N 40°06' W 074°02'0 0.1
2015-Jul-25 08:33N 40°06' W 074°02'5 4.9
2015-Jul-25 07:31N 40°09' W 073°57'3 2.5
2015-Jul-25 06:22N 40°12' W 073°55'0 0.1
2015-Jul-25 04:16N 40°11' W 073°55'1 0.7
2015-Jul-25 03:33N 40°11' W 073°56'  

Dump ship's entire track history